CheckWX is a tool to help pilots better visualize weather data.  It is not intended as a substitute for an official pre-flight weather briefing.

21:39:56 UTC

K40B METAR
Clayton Lake Airport
Clayton Lake, Maine, USA
Current

1 hour ago

K40B 232016Z AUTO VRB03G11KT M02/M10 A3027 RMK AO1 SLP293 T10211104 57020
Observed
Feb-23 @ 20:16 UTC
Wind
  • Variable at 3 KTS
  • Gusting to 11 KTS
Visibility
Temperature
-2°C / 28°F
Dewpoint
-10°C / 14°F
Humidity
55%
Altimeter
30.27" Hg
Pressure
1029.3 hPa
Previous

2 hours ago

K40B 231916Z AUTO VRB03G12KT M02/M10 A3029 RMK AO1 SLP301 T10241105 58020
Observed
Feb-23 @ 19:16 UTC
Wind
  • Variable at 3 KTS
  • Gusting to 12 KTS
Visibility
Temperature
-2°C / 28°F
Dewpoint
-11°C / 12°F
Humidity
51%
Altimeter
30.29" Hg
Pressure
1030.1 hPa
Previous

3 hours ago

K40B 231816Z AUTO VRB05G12KT M04/M11 A3031 RMK AO1 SLP313 T10391109 11034 21257 58007 60001
Observed
Feb-23 @ 18:16 UTC
Wind
  • Variable at 5 KTS
  • Gusting to 12 KTS
Visibility
Temperature
-4°C / 25°F
Dewpoint
-11°C / 12°F
Humidity
59%
Altimeter
30.31" Hg
Pressure
1031.3 hPa